Time;durP1;ratioP1;P1;durP2;ratioP2;P2;SDS_P1;SDS_P2;PMS_P1;PMS_P2;Temp;Humidity;BMP_temperature;BMP_pressure;BME280_temperature;BME280_humidity;BME280_pressure;Samples;Min_cycle;Max_cycle;Signal;HPM_P1;HPM_P2
2023/12/12 05:09:41;;;;;;;;;;;;;;;;;;6217374;23;20009;-74
2023/12/12 05:12:08;;;;;;;;;;;;;;;;;;6218764;23;19920;-76
2023/12/12 05:14:35;;;;;;;;;;;;;;;;;;6218089;23;19924;-73
2023/12/12 05:17:02;;;;;;;;;;;;;;;;;;6217558;23;19920;-73
2023/12/12 05:19:29;;;;;;;;;;;;;;;;;;6216789;23;19970;-72
2023/12/12 05:21:56;;;;;;;;;;;;;;;;;;6217224;23;19920;-73
2023/12/12 05:24:23;;;;;;;;;;;;;;;;;;6216899;23;20355;-72
2023/12/12 05:26:50;;;;;;;;;;;;;;;;;;6216574;23;19926;-72
2023/12/12 05:29:16;;;;;;;;;;;;;;;;;;6216692;23;19942;-72
2023/12/12 05:31:43;;;;;;;;;;;;;;;;;;6216969;23;19920;-73
2023/12/12 05:34:10;;;;;;;;;;;;;;;;;;6217239;23;19995;-70
2023/12/12 05:36:37;;;;;;;;;;;;;;;;;;6216629;23;20340;-70
2023/12/12 05:39:04;;;;;;;;;;;;;;;;;;6216777;23;19927;-71
2023/12/12 05:41:31;;;;;;;;;;;;;;;;;;6217054;23;19924;-71
2023/12/12 05:43:58;;;;;;;;;;;;;;;;;;6216844;23;19987;-71
2023/12/12 05:46:25;;;;;;;;;;;;;;;;;;6216425;23;19924;-70
2023/12/12 05:48:52;;;;;;;;;;;;;;;;;;6216509;23;19920;-71
2023/12/12 05:51:19;;;;;;;;;;;;;;;;;;6216630;23;19920;-71
2023/12/12 05:53:46;;;;;;;;;;;;;;;;;;6216514;23;19974;-71
2023/12/12 05:56:13;;;;;;;;;;;;;;;;;;6216610;23;19920;-71
2023/12/12 05:58:40;;;;;;;;;;;;;;;;;;6216602;23;19962;-70
2023/12/12 06:01:07;;;;;;;;;;;;;;;;;;6217264;23;19920;-69
2023/12/12 06:03:34;;;;;;;;;;;;;;;;;;6216513;23;19970;-71
2023/12/12 06:06:02;;;;;;;;;;;;;;;;;;6216574;23;19920;-71
2023/12/12 06:08:28;;;;;;;;;;;;;;;;;;6216746;23;19920;-71
2023/12/12 06:10:55;;;;;;;;;;;;;;;;;;6216376;23;19930;-71
2023/12/12 06:13:22;;;;;;;;;;;;;;;;;;6216539;23;19924;-71
2023/12/12 06:15:49;;;;;;;;;;;;;;;;;;6217348;23;19927;-72
2023/12/12 06:18:17;;;;;;;;;;;;;;;;;;6216307;23;19920;-71
2023/12/12 06:20:44;;;;;;;;;;;;;;;;;;6216907;23;19920;-71
2023/12/12 06:23:12;;;;;;;;;;;;;;;;;;6216532;23;20259;-73
2023/12/12 06:25:39;;;;;;;;;;;;;;;;;;6216436;23;19920;-74
2023/12/12 06:28:06;;;;;;;;;;;;;;;;;;6216484;23;19927;-74
2023/12/12 06:30:33;;;;;;;;;;;;;;;;;;6216951;23;19920;-73
2023/12/12 06:33:00;;;;;;;;;;;;;;;;;;6216337;23;19919;-72
2023/12/12 06:35:27;;;;;;;;;;;;;;;;;;6216718;23;19919;-71
2023/12/12 06:37:54;;;;;;;;;;;;;;;;;;6215797;23;19920;-71
2023/12/12 06:40:21;;;;;;;;;;;;;;;;;;6216251;23;19927;-72
2023/12/12 06:42:48;;;;;;;;;;;;;;;;;;6216044;23;19920;-72
2023/12/12 06:45:15;;;;;;;;;;;;;;;;;;6216080;23;19927;-72
2023/12/12 06:47:42;;;;;;;;;;;;;;;;;;6216814;23;19920;-72
2023/12/12 06:50:08;;;;;;;;;;;;;;;;;;6216324;23;19927;-72
2023/12/12 06:52:35;;;;;;;;;;;;;;;;;;6216384;23;19916;-72
2023/12/12 06:55:03;;;;;;;;;;;;;;;;;;6216230;23;19927;-73
2023/12/12 06:57:30;;;;;;;;;;;;;;;;;;6216244;23;19920;-71
2023/12/12 06:59:57;;;;;;;;;;;;;;;;;;6215794;23;20397;-71
2023/12/12 07:02:24;;;;;;;;;;;;;;;;;;6216261;23;19920;-71
2023/12/12 07:04:51;;;;;;;;;;;;;;;;;;6216192;23;19920;-71
2023/12/12 11:53:05;;;;;;;;;;;;;;;;;;6248137;23;19918;-72
2023/12/12 11:55:33;;;;;;;;;;;;;;;;;;6249102;23;19999;-72
2023/12/12 11:58:00;;;;;;;;;;;;;;;;;;6248818;23;20408;-72
2023/12/12 12:00:27;;;;;;;;;;;;;;;;;;6248443;23;20385;-72
2023/12/12 12:02:54;;;;;;;;;;;;;;;;;;6249148;23;19955;-72
2023/12/12 12:05:21;;;;;;;;;;;;;;;;;;6249596;23;20299;-72
2023/12/12 12:07:48;;;;;;;;;;;;;;;;;;6249075;23;19920;-71
2023/12/12 12:10:15;;;;;;;;;;;;;;;;;;6248762;23;19924;-72
2023/12/12 12:12:42;;;;;;;;;;;;;;;;;;6249199;23;19920;-72
2023/12/12 12:15:09;;;;;;;;;;;;;;;;;;6249414;23;19925;-72
2023/12/12 12:17:36;;;;;;;;;;;;;;;;;;6248745;23;20343;-72
2023/12/12 12:20:03;;;;;;;;;;;;;;;;;;6248598;23;19920;-72
2023/12/12 12:22:30;;;;;;;;;;;;;;;;;;6248933;23;19920;-72
2023/12/12 12:24:57;;;;;;;;;;;;;;;;;;6248860;23;19926;-71
2023/12/12 12:27:24;;;;;;;;;;;;;;;;;;6249794;23;19963;-71
2023/12/12 12:29:51;;;;;;;;;;;;;;;;;;6249628;23;19959;-71
2023/12/12 12:32:18;;;;;;;;;;;;;;;;;;6249304;23;20003;-72
2023/12/12 12:34:45;;;;;;;;;;;;;;;;;;6248451;23;19920;-72
2023/12/12 12:37:13;;;;;;;;;;;;;;;;;;6249166;23;19920;-71
2023/12/12 12:39:39;;;;;;;;;;;;;;;;;;6248251;23;19924;-71
2023/12/12 12:42:06;;;;;;;;;;;;;;;;;;6248826;23;19924;-71
2023/12/12 12:44:33;;;;;;;;;;;;;;;;;;6248793;23;19925;-71
2023/12/12 12:47:00;;;;;;;;;;;;;;;;;;6248696;23;19919;-71
2023/12/12 12:49:27;;;;;;;;;;;;;;;;;;6248241;23;19975;-71
2023/12/12 12:51:55;;;;;;;;;;;;;;;;;;6248794;23;20278;-70
2023/12/12 12:54:22;;;;;;;;;;;;;;;;;;6248315;23;20011;-71
2023/12/12 12:56:49;;;;;;;;;;;;;;;;;;6247990;23;20259;-71
2023/12/12 12:59:18;;;;;;;;;;;;;;;;;;6248059;23;19921;-72
2023/12/12 13:01:45;;;;;;;;;;;;;;;;;;6248797;23;19920;-71
2023/12/12 13:04:12;;;;;;;;;;;;;;;;;;6248591;23;19919;-71
2023/12/12 13:06:39;;;;;;;;;;;;;;;;;;6248788;23;20208;-71
2023/12/12 13:09:09;;;;;;;;;;;;;;;;;;6249023;23;19955;-71
2023/12/12 13:11:36;;;;;;;;;;;;;;;;;;6249635;23;20267;-71
2023/12/12 13:14:04;;;;;;;;;;;;;;;;;;6248423;23;19958;-71
2023/12/12 13:16:31;;;;;;;;;;;;;;;;;;6248720;23;19919;-72
2023/12/12 13:19:00;;;;;;;;;;;;;;;;;;6249192;23;20224;-72
2023/12/12 13:21:27;;;;;;;;;;;;;;;;;;6247471;23;20003;-71
2023/12/12 13:23:54;;;;;;;;;;;;;;;;;;6246566;23;20351;-71
2023/12/12 13:26:22;;;;;;;;;;;;;;;;;;6247155;23;19930;-71
2023/12/12 13:28:51;;;;;;;;;;;;;;;;;;6247025;23;20347;-72
2023/12/12 13:31:18;;;;;;;;;;;;;;;;;;6247065;23;19927;-72
2023/12/12 13:33:45;;;;;;;;;;;;;;;;;;6247927;23;19919;-72
2023/12/12 13:36:12;;;;;;;;;;;;;;;;;;6247316;23;19923;-72
2023/12/12 13:38:39;;;;;;;;;;;;;;;;;;6247223;23;19920;-72
2023/12/12 13:41:06;;;;;;;;;;;;;;;;;;6246865;23;20275;-71
2023/12/12 13:43:33;;;;;;;;;;;;;;;;;;6247736;23;19927;-71
2023/12/12 13:46:00;;;;;;;;;;;;;;;;;;6246851;23;19920;-73
2023/12/12 13:48:27;;;;;;;;;;;;;;;;;;6247196;23;20002;-73
2023/12/12 13:50:54;;;;;;;;;;;;;;;;;;6246818;23;19927;-71
2023/12/12 13:53:22;;;;;;;;;;;;;;;;;;6246977;23;19920;-72
2023/12/12 13:55:49;;;;;;;;;;;;;;;;;;6247352;23;19926;-71
2023/12/12 13:58:15;;;;;;;;;;;;;;;;;;6247116;23;19920;-71
2023/12/12 14:00:43;;;;;;;;;;;;;;;;;;6246880;23;20274;-71
2023/12/12 14:03:10;;;;;;;;;;;;;;;;;;6246658;23;20335;-71
2023/12/12 14:05:37;;;;;;;;;;;;;;;;;;6246865;23;19927;-71
2023/12/12 14:08:04;;;;;;;;;;;;;;;;;;6246873;23;19920;-71
2023/12/12 14:10:31;;;;;;;;;;;;;;;;;;6247002;23;19926;-72
2023/12/12 14:13:00;;;;;;;;;;;;;;;;;;6246785;23;20347;-71
2023/12/12 14:15:27;;;;;;;;;;;;;;;;;;6247101;23;19920;-71
2023/12/12 14:17:54;;;;;;;;;;;;;;;;;;6246901;23;19920;-71
2023/12/12 14:20:21;;;;;;;;;;;;;;;;;;6246254;23;20263;-71
2023/12/12 14:22:48;;;;;;;;;;;;;;;;;;6246809;23;19920;-71
2023/12/12 14:25:15;;;;;;;;;;;;;;;;;;6246716;23;19924;-71
2023/12/12 14:27:42;;;;;;;;;;;;;;;;;;6246862;23;19966;-71
2023/12/12 14:30:09;;;;;;;;;;;;;;;;;;6246384;23;19927;-71
2023/12/12 14:32:36;;;;;;;;;;;;;;;;;;6246865;23;19954;-71
2023/12/12 14:35:06;;;;;;;;;;;;;;;;;;6246870;23;19974;-72
2023/12/12 14:37:33;;;;;;;;;;;;;;;;;;6246351;23;19970;-72
2023/12/12 14:40:00;;;;;;;;;;;;;;;;;;6246701;23;19926;-72
2023/12/12 14:42:27;;;;;;;;;;;;;;;;;;6248224;23;19919;-72
2023/12/12 14:44:54;;;;;;;;;;;;;;;;;;6248792;23;19920;-72
2023/12/12 14:47:21;;;;;;;;;;;;;;;;;;6248442;23;20422;-72
2023/12/12 14:49:48;;;;;;;;;;;;;;;;;;6248868;23;19919;-72
2023/12/12 14:52:15;;;;;;;;;;;;;;;;;;6248591;23;19923;-72
2023/12/12 14:54:42;;;;;;;;;;;;;;;;;;6248824;23;19942;-71
2023/12/12 14:57:09;;;;;;;;;;;;;;;;;;6248536;23;19919;-72
2023/12/12 14:59:37;;;;;;;;;;;;;;;;;;6248344;23;20236;-72
2023/12/12 15:02:04;;;;;;;;;;;;;;;;;;6248847;23;19927;-73
2023/12/12 15:04:31;;;;;;;;;;;;;;;;;;6248753;23;19919;-73
2023/12/12 15:06:58;;;;;;;;;;;;;;;;;;6248943;23;19927;-73
2023/12/12 15:09:25;;;;;;;;;;;;;;;;;;6248557;23;20258;-73
2023/12/12 15:11:52;;;;;;;;;;;;;;;;;;6250284;23;19920;-73
2023/12/12 15:14:20;;;;;;;;;;;;;;;;;;6248760;23;19919;-73
2023/12/12 15:16:47;;;;;;;;;;;;;;;;;;6249363;23;19942;-72
2023/12/12 15:19:13;;;;;;;;;;;;;;;;;;6249315;23;19923;-72
2023/12/12 15:21:41;;;;;;;;;;;;;;;;;;6248798;23;19927;-73
2023/12/12 15:24:08;;;;;;;;;;;;;;;;;;6248709;23;19919;-73
2023/12/12 15:26:35;;;;;;;;;;;;;;;;;;6248332;23;20369;-72
2023/12/12 15:29:03;;;;;;;;;;;;;;;;;;6248850;23;19926;-72
2023/12/12 15:31:30;;;;;;;;;;;;;;;;;;6248646;23;20336;-73
2023/12/12 15:33:56;;;;;;;;;;;;;;;;;;6249488;23;19927;-73
2023/12/12 15:36:23;;;;;;;;;;;;;;;;;;6248571;23;19924;-73
2023/12/12 15:38:50;;;;;;;;;;;;;;;;;;6248675;23;19920;-73
2023/12/12 15:41:17;;;;;;;;;;;;;;;;;;6248414;23;19920;-73
2023/12/12 15:43:44;;;;;;;;;;;;;;;;;;6248315;23;19947;-73
2023/12/12 15:46:13;;;;;;;;;;;;;;;;;;6248414;23;19926;-73
2023/12/12 15:48:40;;;;;;;;;;;;;;;;;;6249181;23;20430;-73
2023/12/12 15:51:07;;;;;;;;;;;;;;;;;;6250002;23;19966;-73
2023/12/12 15:53:34;;;;;;;;;;;;;;;;;;6248944;23;19923;-73
2023/12/12 15:56:00;;;;;;;;;;;;;;;;;;6248936;23;19943;-74
2023/12/12 15:58:28;;;;;;;;;;;;;;;;;;6248479;23;19923;-74
2023/12/12 16:00:55;;;;;;;;;;;;;;;;;;6248015;23;19920;-74
2023/12/12 16:03:22;;;;;;;;;;;;;;;;;;6248139;23;19926;-72
2023/12/12 16:05:48;;;;;;;;;;;;;;;;;;6247977;23;19927;-72
2023/12/12 16:08:15;;;;;;;;;;;;;;;;;;6247781;23;19926;-72
2023/12/12 16:10:42;;;;;;;;;;;;;;;;;;6247974;23;19920;-72
2023/12/12 16:13:09;;;;;;;;;;;;;;;;;;6247944;23;19926;-72
2023/12/12 16:15:36;;;;;;;;;;;;;;;;;;6247420;23;19920;-72
2023/12/12 16:18:03;;;;;;;;;;;;;;;;;;6247438;23;20335;-72
2023/12/12 16:20:31;;;;;;;;;;;;;;;;;;6247433;23;20354;-72
2023/12/12 16:22:58;;;;;;;;;;;;;;;;;;6247817;23;19919;-72
2023/12/12 16:25:25;;;;;;;;;;;;;;;;;;6247597;23;20363;-72
2023/12/12 16:27:53;;;;;;;;;;;;;;;;;;6247184;23;19920;-73
2023/12/12 16:30:20;;;;;;;;;;;;;;;;;;6247465;23;19943;-72
2023/12/12 16:32:52;;;;;;;;;;;;;;;;;;6247207;23;20327;-72
2023/12/12 16:35:19;;;;;;;;;;;;;;;;;;6247804;23;20061;-72
2023/12/12 16:37:46;;;;;;;;;;;;;;;;;;6247621;23;19927;-72
2023/12/12 16:40:13;;;;;;;;;;;;;;;;;;6247685;23;19919;-72
2023/12/12 16:42:41;;;;;;;;;;;;;;;;;;6247719;23;19920;-72
2023/12/12 16:45:09;;;;;;;;;;;;;;;;;;6247656;23;19926;-72
2023/12/12 16:47:36;;;;;;;;;;;;;;;;;;6247470;23;19995;-73
2023/12/12 16:50:02;;;;;;;;;;;;;;;;;;6247539;23;19919;-73
2023/12/12 16:52:29;;;;;;;;;;;;;;;;;;6247448;23;19919;-73
2023/12/12 16:54:56;;;;;;;;;;;;;;;;;;6247607;23;20263;-72
2023/12/12 16:57:23;;;;;;;;;;;;;;;;;;6247656;23;19927;-72
2023/12/12 16:59:50;;;;;;;;;;;;;;;;;;6247565;23;19919;-72
2023/12/12 17:02:17;;;;;;;;;;;;;;;;;;6247342;23;19920;-71
2023/12/12 17:04:45;;;;;;;;;;;;;;;;;;6246753;23;20403;-71
2023/12/12 17:07:12;;;;;;;;;;;;;;;;;;6246839;23;20323;-71
2023/12/12 17:09:39;;;;;;;;;;;;;;;;;;6247193;23;19919;-71
2023/12/12 17:12:06;;;;;;;;;;;;;;;;;;6247443;23;19919;-71
2023/12/12 17:14:33;;;;;;;;;;;;;;;;;;6247293;23;19926;-71
2023/12/12 17:17:01;;;;;;;;;;;;;;;;;;6247308;23;19943;-71
2023/12/12 17:19:28;;;;;;;;;;;;;;;;;;6247295;23;19925;-71
2023/12/12 17:21:55;;;;;;;;;;;;;;;;;;6247248;23;19931;-70
2023/12/12 17:24:22;;;;;;;;;;;;;;;;;;6247233;23;19923;-70
2023/12/12 17:26:49;;;;;;;;;;;;;;;;;;6247322;23;19920;-70
2023/12/12 17:29:16;;;;;;;;;;;;;;;;;;6246698;23;20338;-70
2023/12/12 17:31:43;;;;;;;;;;;;;;;;;;6247367;23;19920;-70
2023/12/12 17:34:10;;;;;;;;;;;;;;;;;;6247469;23;19920;-70
2023/12/12 17:36:37;;;;;;;;;;;;;;;;;;6247200;23;19920;-70
2023/12/12 17:39:04;;;;;;;;;;;;;;;;;;6246960;23;19927;-70
2023/12/12 17:41:31;;;;;;;;;;;;;;;;;;6247708;23;20236;-70
2023/12/12 17:43:58;;;;;;;;;;;;;;;;;;6247957;23;19919;-70
2023/12/12 17:46:24;;;;;;;;;;;;;;;;;;6247291;23;20259;-72
2023/12/12 17:48:52;;;;;;;;;;;;;;;;;;6247481;23;19920;-70
2023/12/12 17:51:20;;;;;;;;;;;;;;;;;;6247555;23;20323;-70
2023/12/12 17:53:46;;;;;;;;;;;;;;;;;;6246653;23;19965;-71
2023/12/12 17:56:13;;;;;;;;;;;;;;;;;;6246919;23;19943;-71
2023/12/12 17:58:40;;;;;;;;;;;;;;;;;;6247462;23;19919;-72
2023/12/12 18:01:07;;;;;;;;;;;;;;;;;;6247684;23;19919;-73
2023/12/12 18:03:34;;;;;;;;;;;;;;;;;;6247644;23;19919;-73
2023/12/12 18:06:01;;;;;;;;;;;;;;;;;;6247510;23;19942;-73
2023/12/12 18:08:28;;;;;;;;;;;;;;;;;;6247278;23;19920;-73
2023/12/12 18:10:55;;;;;;;;;;;;;;;;;;6247649;23;19924;-73
2023/12/12 18:13:23;;;;;;;;;;;;;;;;;;6247737;23;19919;-74
2023/12/12 18:15:50;;;;;;;;;;;;;;;;;;6247915;23;19919;-73
2023/12/12 18:18:17;;;;;;;;;;;;;;;;;;6248077;23;19920;-73
2023/12/12 18:20:44;;;;;;;;;;;;;;;;;;6248178;23;19923;-73
2023/12/12 18:23:10;;;;;;;;;;;;;;;;;;6247921;23;20332;-74
2023/12/12 18:25:41;;;;;;;;;;;;;;;;;;6248340;23;19919;-73
2023/12/12 18:28:08;;;;;;;;;;;;;;;;;;6248550;23;19942;-72
2023/12/12 18:30:42;;;;;;;;;;;;;;;;;;6248096;23;19955;-71
2023/12/12 18:33:09;;;;;;;;;;;;;;;;;;6248844;23;19920;-72
2023/12/12 18:35:36;;;;;;;;;;;;;;;;;;6248066;23;20235;-75
2023/12/12 18:38:03;;;;;;;;;;;;;;;;;;6248772;23;19919;-74
2023/12/12 18:40:30;;;;;;;;;;;;;;;;;;6247938;23;20352;-74
2023/12/12 18:42:57;;;;;;;;;;;;;;;;;;6248482;23;19926;-75
2023/12/12 18:45:24;;;;;;;;;;;;;;;;;;6246968;23;19919;-74
2023/12/12 18:47:51;;;;;;;;;;;;;;;;;;6247938;23;19927;-74
2023/12/12 18:50:18;;;;;;;;;;;;;;;;;;6247198;23;19974;-74
2023/12/12 18:52:45;;;;;;;;;;;;;;;;;;6246883;23;20343;-74
2023/12/12 18:55:12;;;;;;;;;;;;;;;;;;6247407;23;19920;-73
2023/12/12 18:57:39;;;;;;;;;;;;;;;;;;6247450;23;19919;-75
2023/12/12 19:00:10;;;;;;;;;;;;;;;;;;6247691;23;19927;-74
2023/12/12 19:02:37;;;;;;;;;;;;;;;;;;6248879;23;19977;-75
2023/12/12 19:05:05;;;;;;;;;;;;;;;;;;6247452;23;19920;-73
2023/12/12 19:07:32;;;;;;;;;;;;;;;;;;6246560;23;19998;-73
2023/12/12 19:09:59;;;;;;;;;;;;;;;;;;6248351;23;19920;-74
2023/12/12 19:12:26;;;;;;;;;;;;;;;;;;6247681;23;20255;-74
2023/12/12 19:14:53;;;;;;;;;;;;;;;;;;6247043;23;20374;-74
2023/12/12 19:17:21;;;;;;;;;;;;;;;;;;6248432;23;19989;-74
2023/12/12 19:19:50;;;;;;;;;;;;;;;;;;6247168;23;22346;-76
2023/12/12 19:22:17;;;;;;;;;;;;;;;;;;6247296;23;19924;-75
2023/12/12 19:24:44;;;;;;;;;;;;;;;;;;6247437;23;20284;-76
2023/12/12 19:27:11;;;;;;;;;;;;;;;;;;6247711;23;19926;-73
2023/12/12 19:29:39;;;;;;;;;;;;;;;;;;6249675;23;19926;-71
2023/12/12 19:32:06;;;;;;;;;;;;;;;;;;6248684;23;19920;-72
2023/12/12 19:34:33;;;;;;;;;;;;;;;;;;6248938;23;19951;-71
2023/12/12 19:37:01;;;;;;;;;;;;;;;;;;6248780;23;19927;-72
2023/12/12 19:39:28;;;;;;;;;;;;;;;;;;6249220;23;19924;-71
2023/12/12 19:41:56;;;;;;;;;;;;;;;;;;6248942;23;19978;-71
2023/12/12 19:44:23;;;;;;;;;;;;;;;;;;6248927;23;19920;-71
2023/12/12 19:46:51;;;;;;;;;;;;;;;;;;6248936;23;19919;-72
2023/12/12 19:49:18;;;;;;;;;;;;;;;;;;6249214;23;19924;-71
2023/12/12 19:51:45;;;;;;;;;;;;;;;;;;6249068;23;19942;-71
2023/12/12 19:54:12;;;;;;;;;;;;;;;;;;6249028;23;19927;-71
2023/12/12 19:56:39;;;;;;;;;;;;;;;;;;6249333;23;19920;-72
2023/12/12 19:59:06;;;;;;;;;;;;;;;;;;6249372;23;19920;-71
2023/12/12 20:01:33;;;;;;;;;;;;;;;;;;6248668;23;19923;-70
2023/12/12 20:04:00;;;;;;;;;;;;;;;;;;6249381;23;19954;-74
2023/12/12 20:06:27;;;;;;;;;;;;;;;;;;6248922;23;20251;-73
2023/12/12 20:08:54;;;;;;;;;;;;;;;;;;6248998;23;19958;-74
2023/12/12 20:11:21;;;;;;;;;;;;;;;;;;6248788;23;20248;-73
2023/12/12 20:13:49;;;;;;;;;;;;;;;;;;6248978;23;19924;-73
2023/12/12 20:16:19;;;;;;;;;;;;;;;;;;6249359;23;19923;-74
2023/12/12 20:18:45;;;;;;;;;;;;;;;;;;6248888;23;19970;-75
2023/12/12 20:21:12;;;;;;;;;;;;;;;;;;6248665;23;19919;-75
2023/12/12 20:23:39;;;;;;;;;;;;;;;;;;6248538;23;19920;-74
2023/12/12 20:26:06;;;;;;;;;;;;;;;;;;6248590;23;19919;-74
2023/12/12 20:28:33;;;;;;;;;;;;;;;;;;6248244;23;19927;-74
2023/12/12 20:33:28;;;;;;;;;;;;;;;;;;6218743;23;19920;-68
2023/12/12 20:35:55;;;;;;;;;;;;;;;;;;6217991;23;19926;-68
2023/12/12 20:38:22;;;;;;;;;;;;;;;;;;6217600;23;19942;-69
2023/12/12 20:40:50;;;;;;;;;;;;;;;;;;6218557;23;19927;-68
2023/12/12 20:43:17;;;;;;;;;;;;;;;;;;6217595;23;20287;-68
2023/12/12 20:45:44;;;;;;;;;;;;;;;;;;6217883;23;20003;-68
2023/12/12 20:48:11;;;;;;;;;;;;;;;;;;6217739;23;19943;-68
2023/12/12 20:50:39;;;;;;;;;;;;;;;;;;6218158;23;19920;-70
2023/12/12 20:53:06;;;;;;;;;;;;;;;;;;6217534;23;19920;-68
2023/12/12 20:55:34;;;;;;;;;;;;;;;;;;6217793;23;19920;-69
2023/12/12 20:58:01;;;;;;;;;;;;;;;;;;6217775;23;19920;-67
2023/12/12 21:00:28;;;;;;;;;;;;;;;;;;6217365;23;20259;-68
2023/12/12 21:02:55;;;;;;;;;;;;;;;;;;6217488;23;19919;-68
2023/12/12 21:05:22;;;;;;;;;;;;;;;;;;6217890;23;19998;-67
2023/12/12 21:07:49;;;;;;;;;;;;;;;;;;6217782;23;20259;-67
2023/12/12 21:10:16;;;;;;;;;;;;;;;;;;6217546;23;19926;-68
2023/12/12 21:12:43;;;;;;;;;;;;;;;;;;6218759;23;19920;-69
2023/12/12 21:15:10;;;;;;;;;;;;;;;;;;6221013;23;19920;-68
2023/12/12 21:17:36;;;;;;;;;;;;;;;;;;6219477;23;19920;-68
2023/12/12 21:20:06;;;;;;;;;;;;;;;;;;6220805;23;19942;-68
2023/12/12 21:22:34;;;;;;;;;;;;;;;;;;6217812;23;19920;-68
2023/12/12 21:25:00;;;;;;;;;;;;;;;;;;6216995;23;19943;-68
2023/12/12 21:27:27;;;;;;;;;;;;;;;;;;6217137;23;20376;-68
2023/12/12 21:29:54;;;;;;;;;;;;;;;;;;6217768;23;19924;-68
2023/12/12 21:32:21;;;;;;;;;;;;;;;;;;6216541;23;19923;-68
2023/12/12 21:34:48;;;;;;;;;;;;;;;;;;6216763;23;19926;-68
2023/12/12 21:37:15;;;;;;;;;;;;;;;;;;6216961;23;19924;-68
2023/12/12 21:39:42;;;;;;;;;;;;;;;;;;6217040;23;19926;-68
2023/12/12 21:42:09;;;;;;;;;;;;;;;;;;6216587;23;19920;-68
2023/12/12 21:44:36;;;;;;;;;;;;;;;;;;6216625;23;19920;-68
2023/12/12 21:47:03;;;;;;;;;;;;;;;;;;6216694;23;19920;-68
2023/12/12 21:49:30;;;;;;;;;;;;;;;;;;6216481;23;19920;-68
2023/12/12 21:51:57;;;;;;;;;;;;;;;;;;6216002;23;19927;-69
2023/12/12 21:54:23;;;;;;;;;;;;;;;;;;6216125;23;20344;-70
2023/12/12 21:56:50;;;;;;;;;;;;;;;;;;6216578;23;19920;-70
2023/12/12 21:59:17;;;;;;;;;;;;;;;;;;6216530;23;19924;-70
2023/12/12 22:01:44;;;;;;;;;;;;;;;;;;6216382;23;19924;-70
2023/12/12 22:04:11;;;;;;;;;;;;;;;;;;6216508;23;19920;-70
2023/12/12 22:06:38;;;;;;;;;;;;;;;;;;6216024;23;20348;-70
2023/12/12 22:09:05;;;;;;;;;;;;;;;;;;6215857;23;20225;-70
2023/12/12 22:11:32;;;;;;;;;;;;;;;;;;6216285;23;19920;-70
2023/12/12 22:13:59;;;;;;;;;;;;;;;;;;6216025;23;19927;-68
2023/12/12 22:16:27;;;;;;;;;;;;;;;;;;6216362;23;19942;-68
2023/12/12 22:18:54;;;;;;;;;;;;;;;;;;6216375;23;20294;-68
2023/12/12 22:21:26;;;;;;;;;;;;;;;;;;6216652;23;19920;-70
2023/12/12 22:23:53;;;;;;;;;;;;;;;;;;6216628;23;19920;-69
2023/12/12 22:26:20;;;;;;;;;;;;;;;;;;6216048;23;20347;-69
2023/12/12 22:28:47;;;;;;;;;;;;;;;;;;6216312;23;20006;-69
2023/12/12 22:31:14;;;;;;;;;;;;;;;;;;6216193;23;19920;-69
2023/12/12 22:33:40;;;;;;;;;;;;;;;;;;6216351;23;19927;-69
2023/12/12 22:36:07;;;;;;;;;;;;;;;;;;6215839;23;20355;-69
2023/12/12 22:38:34;;;;;;;;;;;;;;;;;;6216148;23;19931;-70
